createdAt,value
2019-06-01T00:02:14.572Z,90.66
2019-06-01T00:04:45.285Z,91.13
2019-06-01T00:07:15.660Z,90.80
2019-06-01T00:09:47.140Z,91.24
2019-06-01T00:12:20.283Z,90.94
2019-06-01T00:14:51.986Z,91.36
2019-06-01T00:17:22.232Z,90.61
2019-06-01T00:19:57.161Z,90.55
2019-06-01T00:22:27.299Z,90.70
2019-06-01T00:24:57.512Z,89.90
2019-06-01T00:27:27.765Z,90.29
2019-06-01T00:29:58.025Z,90.39
2019-06-01T00:32:28.277Z,89.80
2019-06-01T00:34:58.575Z,90.38
2019-06-01T00:37:29.377Z,90.70
2019-06-01T00:40:00.351Z,90.29
2019-06-01T00:42:30.509Z,90.55
2019-06-01T00:45:00.659Z,91.00
2019-06-01T00:47:30.815Z,91.31
2019-06-01T00:50:01.656Z,91.22
2019-06-01T00:52:31.774Z,90.78
2019-06-01T00:55:01.955Z,90.31
2019-06-01T00:57:32.381Z,90.90
2019-06-01T01:00:02.568Z,91.07
2019-06-01T01:02:34.410Z,90.65
2019-06-01T01:05:12.183Z,90.11
2019-06-01T01:07:42.376Z,90.37
2019-06-01T01:10:12.733Z,90.51
2019-06-01T01:13:00.649Z,89.85
2019-06-01T01:15:30.891Z,89.96
2019-06-01T01:18:02.451Z,90.90
2019-06-01T01:20:33.730Z,90.27
2019-06-01T01:23:03.945Z,90.37
2019-06-01T01:25:34.111Z,90.57
2019-06-01T01:28:04.535Z,90.55
2019-06-01T01:30:35.202Z,90.08
2019-06-01T01:33:05.516Z,90.73
2019-06-01T01:35:35.731Z,90.78
2019-06-01T01:38:05.887Z,91.63
2019-06-01T01:40:36.342Z,90.46
2019-06-01T01:43:06.540Z,90.88
2019-06-01T01:45:36.722Z,90.93
2019-06-01T01:48:06.872Z,90.85
2019-06-01T01:50:37.173Z,91.55
2019-06-01T01:53:07.342Z,91.39
2019-06-01T01:55:37.574Z,90.94
2019-06-01T01:58:09.480Z,90.77
2019-06-01T02:00:44.687Z,91.10
2019-06-01T02:03:14.828Z,91.48
2019-06-01T02:05:45.107Z,91.85
2019-06-01T02:08:15.484Z,91.49
2019-06-01T02:10:45.705Z,91.82
2019-06-01T02:13:15.805Z,91.30
2019-06-01T02:15:45.993Z,91.35
2019-06-01T02:18:16.339Z,91.09
2019-06-01T02:20:46.493Z,91.69
2019-06-01T02:23:16.769Z,91.87
2019-06-01T02:25:46.909Z,91.56
2019-06-01T02:28:17.073Z,91.67
2019-06-01T02:30:47.447Z,91.55
2019-06-01T02:33:17.766Z,91.26
2019-06-01T02:35:47.898Z,91.56
2019-06-01T02:38:18.277Z,91.42
2019-06-01T02:40:49.310Z,91.84
2019-06-01T02:43:21.120Z,91.69
2019-06-01T02:45:51.561Z,91.06
2019-06-01T02:48:21.807Z,92.16
2019-06-01T02:50:51.995Z,91.27
2019-06-01T02:53:22.229Z,91.67
2019-06-01T02:55:52.351Z,91.34
2019-06-01T02:58:22.572Z,91.98
2019-06-01T03:01:34.496Z,91.99
2019-06-01T03:04:08.546Z,91.76
2019-06-01T03:06:44.382Z,92.26
2019-06-01T03:09:16.364Z,92.17
2019-06-01T03:11:48.557Z,92.44
2019-06-01T03:14:20.664Z,91.90
2019-06-01T03:16:53.175Z,92.25
2019-06-01T03:19:26.169Z,92.02
2019-06-01T03:22:00.015Z,92.52
2019-06-01T03:24:33.695Z,91.89
2019-06-01T03:27:06.242Z,92.26
2019-06-01T03:29:41.279Z,92.45
2019-06-01T03:32:29.045Z,91.98
2019-06-01T03:34:46.572Z,91.97
2019-06-01T03:37:16.938Z,92.29
2019-06-01T03:39:47.198Z,92.27
2019-06-01T03:42:17.757Z,92.86
2019-06-01T03:44:50.223Z,92.89
2019-06-01T03:47:22.565Z,92.59
2019-06-01T03:49:54.310Z,92.33
2019-06-01T03:52:24.414Z,93.16
2019-06-01T03:54:56.865Z,92.64
2019-06-01T03:57:27.017Z,92.29
2019-06-01T03:59:58.570Z,92.90
2019-06-01T04:02:33.255Z,92.07
2019-06-01T04:05:05.492Z,92.12
2019-06-01T04:07:38.781Z,92.96
2019-06-01T04:10:09.822Z,92.92
2019-06-01T04:12:41.203Z,92.83
2019-06-01T04:15:14.514Z,92.12
2019-06-01T04:17:45.033Z,93.14
2019-06-01T04:20:57.557Z,92.94
2019-06-01T04:24:04.012Z,93.18
2019-06-01T04:26:41.921Z,93.38
2019-06-01T04:29:13.950Z,92.67
2019-06-01T04:31:46.918Z,93.32
2019-06-01T04:34:18.764Z,93.02
2019-06-01T04:36:49.069Z,93.36
2019-06-01T04:39:19.272Z,93.68
2019-06-01T04:41:49.393Z,93.50
2019-06-01T04:44:19.552Z,93.11
2019-06-01T04:46:49.739Z,92.07
2019-06-01T04:49:19.945Z,92.63
2019-06-01T04:51:50.142Z,92.21
2019-06-01T04:54:20.520Z,91.96
2019-06-01T04:56:52.926Z,91.50
2019-06-01T04:59:23.353Z,90.66
2019-06-01T05:01:57.369Z,90.91
2019-06-01T05:04:27.584Z,91.21
2019-06-01T05:06:58.953Z,90.57
2019-06-01T05:09:29.339Z,90.30
2019-06-01T05:11:59.660Z,89.98
2019-06-01T05:14:31.140Z,90.47
2019-06-01T05:17:01.413Z,89.74
2019-06-01T05:19:31.684Z,90.02
2019-06-01T05:22:01.897Z,89.46
2019-06-01T05:24:32.196Z,89.37
2019-06-01T05:27:08.991Z,89.40
2019-06-01T05:29:39.462Z,89.27
2019-06-01T05:32:10.422Z,88.81
2019-06-01T05:34:40.825Z,88.52
2019-06-01T05:37:12.322Z,88.25
2019-06-01T05:39:42.610Z,88.27
2019-06-01T05:42:12.835Z,88.12
2019-06-01T05:44:43.007Z,87.74
2019-06-01T05:47:14.241Z,87.75
2019-06-01T05:49:44.811Z,87.54
2019-06-01T05:52:14.952Z,87.47
2019-06-01T05:54:45.262Z,86.73
2019-06-01T05:57:15.417Z,86.81
2019-06-01T05:59:45.819Z,86.16
2019-06-01T06:02:17.371Z,86.33
2019-06-01T06:04:48.752Z,85.90
2019-06-01T06:07:19.081Z,85.05
2019-06-01T06:09:49.372Z,85.14
2019-06-01T06:12:19.571Z,84.22
2019-06-01T06:14:52.930Z,84.85
2019-06-01T06:17:24.304Z,83.43
2019-06-01T06:19:54.687Z,83.69
2019-06-01T06:22:24.876Z,84.33
2019-06-01T06:24:55.052Z,83.41
2019-06-01T06:27:25.218Z,83.33
2019-06-01T06:29:55.374Z,82.64
2019-06-01T06:32:25.557Z,82.06
2019-06-01T06:34:55.590Z,82.68
2019-06-01T06:37:27.373Z,82.60
2019-06-01T06:40:00.832Z,82.72
2019-06-01T06:42:31.129Z,82.28
2019-06-01T06:45:03.509Z,82.49
2019-06-01T06:47:33.170Z,82.23
2019-06-01T06:50:03.382Z,82.17
2019-06-01T06:52:33.549Z,81.81
2019-06-01T06:55:03.688Z,80.71
2019-06-01T06:57:36.246Z,81.42
2019-06-01T07:00:06.642Z,81.39
2019-06-01T07:02:37.321Z,79.06
2019-06-01T07:05:07.612Z,79.00
2019-06-01T07:07:38.956Z,78.65
2019-06-01T07:10:09.610Z,77.62
2019-06-01T07:12:39.830Z,77.82
2019-06-01T07:15:10.288Z,76.75
2019-06-01T07:17:40.459Z,77.51
2019-06-01T07:20:10.758Z,78.12
2019-06-01T07:22:41.022Z,77.64
2019-06-01T07:25:11.437Z,78.06
2019-06-01T07:27:41.634Z,76.94
2019-06-01T07:30:13.416Z,76.85
2019-06-01T07:32:43.757Z,76.81
2019-06-01T07:35:15.108Z,76.27
2019-06-01T07:37:45.360Z,75.75
2019-06-01T07:40:15.593Z,74.27
2019-06-01T07:42:45.754Z,74.82
2019-06-01T07:45:15.925Z,73.52
2019-06-01T07:47:46.161Z,74.06
2019-06-01T07:50:16.395Z,74.19
2019-06-01T07:52:46.597Z,74.61
2019-06-01T07:55:16.842Z,73.74
2019-06-01T07:57:47.149Z,74.71
2019-06-01T08:00:17.418Z,73.94
2019-06-01T08:02:48.755Z,73.39
2019-06-01T08:05:23.240Z,72.69
2019-06-01T08:07:52.619Z,72.07
2019-06-01T08:10:24.447Z,71.53
2019-06-01T08:12:55.068Z,71.94
2019-06-01T08:15:28.059Z,70.52
2019-06-01T08:18:02.005Z,72.43
2019-06-01T08:20:34.957Z,71.99
2019-06-01T08:23:05.215Z,70.62
2019-06-01T08:25:35.506Z,70.89
2019-06-01T08:28:06.269Z,70.34
2019-06-01T08:30:39.660Z,69.44
2019-06-01T08:33:12.138Z,70.33
2019-06-01T08:35:42.370Z,70.81
2019-06-01T08:38:15.904Z,69.70
2019-06-01T08:40:46.104Z,68.55
2019-06-01T08:43:16.388Z,69.96
2019-06-01T08:45:46.685Z,68.68
2019-06-01T08:48:16.866Z,70.06
2019-06-01T08:50:47.125Z,70.55
2019-06-01T08:53:17.405Z,70.32
2019-06-01T08:55:47.634Z,67.99
2019-06-01T08:58:17.904Z,68.59
2019-06-01T09:00:48.092Z,68.69
2019-06-01T09:03:18.410Z,68.48
2019-06-01T09:05:49.615Z,68.51
2019-06-01T09:08:23.606Z,69.40
2019-06-01T09:10:53.910Z,68.41
2019-06-01T09:13:25.107Z,69.40
2019-06-01T09:15:55.374Z,68.75
2019-06-01T09:18:25.765Z,69.07
2019-06-01T09:20:55.930Z,68.73
2019-06-01T09:23:29.515Z,68.27
2019-06-01T09:26:01.244Z,68.61
2019-06-01T09:28:31.910Z,68.38
2019-06-01T09:31:02.194Z,68.38
2019-06-01T09:33:32.402Z,67.87
2019-06-01T09:36:02.603Z,68.46
2019-06-01T09:38:33.757Z,68.21
2019-06-01T09:41:04.026Z,68.55
2019-06-01T09:43:34.993Z,68.27
2019-06-01T09:46:05.221Z,66.55
2019-06-01T09:48:38.204Z,65.24
2019-06-01T09:51:08.463Z,67.95
2019-06-01T09:53:39.538Z,68.25
2019-06-01T09:56:09.734Z,68.28
2019-06-01T09:58:40.263Z,66.99
2019-06-01T10:01:16.784Z,68.36
2019-06-01T10:03:51.110Z,67.57
2019-06-01T10:06:23.639Z,68.55
2019-06-01T10:08:58.465Z,67.53
2019-06-01T10:11:29.843Z,67.46
2019-06-01T10:14:00.642Z,67.82
2019-06-01T10:16:34.543Z,66.06
2019-06-01T10:19:11.769Z,66.84
2019-06-01T10:21:42.950Z,66.55
2019-06-01T10:24:13.381Z,65.96
2019-06-01T10:26:43.786Z,65.29
2019-06-01T10:29:13.972Z,63.99
2019-06-01T10:31:44.468Z,65.43
2019-06-01T10:34:14.763Z,66.56
2019-06-01T10:37:01.972Z,65.85
2019-06-01T10:39:33.323Z,65.65
2019-06-01T10:42:03.495Z,65.97
2019-06-01T10:44:41.199Z,64.53
2019-06-01T10:47:08.069Z,65.49
2019-06-01T10:49:38.240Z,61.73
2019-06-01T10:52:08.434Z,65.61
2019-06-01T10:54:38.606Z,65.15
2019-06-01T10:57:08.775Z,64.30
2019-06-01T10:59:39.050Z,65.56
2019-06-01T11:02:09.953Z,63.89
2019-06-01T11:04:41.104Z,64.06
2019-06-01T11:07:11.491Z,63.53
2019-06-01T11:09:41.737Z,63.69
2019-06-01T11:12:12.820Z,62.77
2019-06-01T11:14:43.411Z,63.42
2019-06-01T11:17:15.324Z,62.34
2019-06-01T11:19:46.448Z,61.22
2019-06-01T11:22:24.077Z,63.14
2019-06-01T11:24:55.944Z,61.50
2019-06-01T11:27:27.775Z,61.05
2019-06-01T11:29:57.992Z,61.30
2019-06-01T11:32:28.269Z,60.82
2019-06-01T11:34:58.439Z,62.46
2019-06-01T11:37:28.623Z,61.02
2019-06-01T11:39:58.812Z,60.64
2019-06-01T11:42:28.986Z,61.35
2019-06-01T11:44:59.303Z,60.42
2019-06-01T11:47:29.504Z,61.13
2019-06-01T11:49:59.737Z,60.57
2019-06-01T11:52:29.909Z,61.04
2019-06-01T11:55:00.147Z,59.49
2019-06-01T11:57:30.313Z,60.79
2019-06-01T12:00:00.505Z,62.25
2019-06-01T12:02:32.316Z,61.33
2019-06-01T12:05:02.613Z,60.64
2019-06-01T12:07:32.781Z,60.46
2019-06-01T12:10:03.055Z,59.02
2019-06-01T12:12:36.024Z,58.20
2019-06-01T12:15:09.575Z,58.10
2019-06-01T12:17:40.653Z,58.88
2019-06-01T12:20:11.791Z,59.89
2019-06-01T12:22:42.930Z,56.92
2019-06-01T12:25:14.520Z,56.28
2019-06-01T12:27:45.976Z,59.04
2019-06-01T12:30:16.592Z,57.56
2019-06-01T12:32:48.709Z,57.73
2019-06-01T12:35:19.150Z,60.14
2019-06-01T12:38:04.379Z,56.37
2019-06-01T12:40:21.300Z,56.51
2019-06-01T12:42:55.033Z,56.95
2019-06-01T12:45:25.655Z,56.01
2019-06-01T12:47:58.503Z,57.32
2019-06-01T12:50:29.303Z,53.92
2019-06-01T12:52:59.540Z,55.57
2019-06-01T12:55:29.809Z,57.69
2019-06-01T12:57:59.997Z,56.29
2019-06-01T13:00:30.202Z,57.82
2019-06-01T13:03:06.992Z,56.02
2019-06-01T13:05:32.678Z,54.79
2019-06-01T13:08:03.210Z,57.43
2019-06-01T13:10:35.038Z,54.28
2019-06-01T13:13:05.211Z,54.62
2019-06-01T13:15:35.440Z,55.96
2019-06-01T13:18:05.953Z,54.19
2019-06-01T13:20:39.136Z,54.82
2019-06-01T13:23:09.240Z,54.69
2019-06-01T13:25:39.529Z,52.95
2019-06-01T13:28:09.643Z,54.32
2019-06-01T13:30:39.788Z,55.34
2019-06-01T13:33:09.970Z,53.72
2019-06-01T13:35:40.244Z,54.41
2019-06-01T13:38:12.257Z,54.46
2019-06-01T13:40:42.940Z,53.18
2019-06-01T13:43:13.277Z,50.30
2019-06-01T13:45:43.500Z,52.45
2019-06-01T13:48:13.729Z,54.94
2019-06-01T13:50:43.917Z,51.69
2019-06-01T13:53:15.447Z,51.48
2019-06-01T13:55:46.044Z,49.64
2019-06-01T13:58:16.261Z,50.04
2019-06-01T14:00:46.411Z,49.98
2019-06-01T14:03:16.624Z,49.77
2019-06-01T14:05:46.958Z,48.55
2019-06-01T14:08:28.496Z,51.20
2019-06-01T14:10:51.280Z,49.54
2019-06-01T14:13:21.635Z,49.21
2019-06-01T14:15:51.912Z,46.59
2019-06-01T14:18:22.097Z,47.25
2019-06-01T14:20:52.323Z,49.17
2019-06-01T14:23:22.798Z,48.15
2019-06-01T14:25:54.106Z,46.22
2019-06-01T14:28:24.571Z,46.51
2019-06-01T14:30:54.708Z,46.59
2019-06-01T14:33:25.021Z,47.37
2019-06-01T14:35:55.127Z,46.53
2019-06-01T14:38:25.267Z,45.01
2019-06-01T14:40:55.455Z,44.94
2019-06-01T14:43:25.583Z,44.78
2019-06-01T14:45:56.008Z,47.31
2019-06-01T14:48:26.211Z,47.28
2019-06-01T14:50:57.790Z,43.78
2019-06-01T14:53:28.144Z,44.84
2019-06-01T14:55:58.336Z,46.36
2019-06-01T14:58:30.208Z,45.17
2019-06-01T15:01:00.470Z,45.82
2019-06-01T15:03:32.502Z,43.76
2019-06-01T15:06:02.732Z,43.97
2019-06-01T15:08:32.943Z,45.73
2019-06-01T15:11:03.298Z,45.42
2019-06-01T15:13:36.087Z,46.43
2019-06-01T15:16:06.394Z,45.58
2019-06-01T15:18:36.553Z,44.21
2019-06-01T15:21:09.115Z,41.81
2019-06-01T15:23:39.504Z,42.89
2019-06-01T15:26:09.608Z,45.05
2019-06-01T15:28:39.833Z,45.99
2019-06-01T15:31:12.259Z,45.91
2019-06-01T15:33:42.517Z,47.63
2019-06-01T15:36:12.660Z,47.60
2019-06-01T15:38:42.861Z,46.11
2019-06-01T15:41:13.057Z,47.70
2019-06-01T15:43:43.284Z,48.38
2019-06-01T15:46:13.445Z,50.13
2019-06-01T15:48:43.701Z,49.23
2019-06-01T15:51:13.881Z,47.12
2019-06-01T15:53:44.311Z,48.63
2019-06-01T15:56:14.513Z,51.64
2019-06-01T15:58:52.856Z,54.32
2019-06-01T16:01:18.288Z,55.36
2019-06-01T16:03:49.541Z,55.80
2019-06-01T16:06:19.818Z,55.09
2019-06-01T16:08:50.455Z,55.50
2019-06-01T16:11:21.625Z,55.80
2019-06-01T16:13:51.826Z,56.81
2019-06-01T16:16:21.970Z,57.24
2019-06-01T16:18:57.247Z,56.98
2019-06-01T16:21:24.497Z,56.73
2019-06-01T16:23:55.909Z,56.48
2019-06-01T16:26:26.487Z,55.87
2019-06-01T16:28:58.568Z,56.97
2019-06-01T16:31:28.735Z,56.77
2019-06-01T16:33:58.970Z,56.79
2019-06-01T16:36:29.113Z,55.98
2019-06-01T16:39:02.830Z,57.16
2019-06-01T16:41:32.995Z,57.10
2019-06-01T16:44:03.783Z,58.11
2019-06-01T16:46:35.502Z,56.80
2019-06-01T16:49:06.870Z,56.62
2019-06-01T16:51:59.344Z,57.33
2019-06-01T16:54:30.098Z,57.32
2019-06-01T16:57:01.121Z,56.60
2019-06-01T16:59:31.348Z,57.13
2019-06-01T17:02:02.897Z,56.31
2019-06-01T17:04:33.527Z,54.78
2019-06-01T17:07:05.653Z,53.67
2019-06-01T17:09:37.892Z,53.63
2019-06-01T17:12:08.086Z,53.84
2019-06-01T17:14:38.282Z,54.24
2019-06-01T17:17:08.501Z,52.73
2019-06-01T17:19:38.747Z,49.94
2019-06-01T17:22:08.988Z,50.06
2019-06-01T17:24:39.332Z,50.70
2019-06-01T17:27:09.593Z,51.80
2019-06-01T17:29:39.936Z,50.59
2019-06-01T17:32:22.951Z,49.13
2019-06-01T17:34:42.025Z,50.06
2019-06-01T17:37:12.274Z,48.96
2019-06-01T17:39:44.077Z,48.60
2019-06-01T17:42:15.921Z,50.45
2019-06-01T17:44:46.102Z,49.03
2019-06-01T17:47:16.369Z,49.12
2019-06-01T17:49:46.729Z,48.21
2019-06-01T17:52:17.025Z,50.94
2019-06-01T17:54:47.193Z,54.33
2019-06-01T17:57:17.379Z,52.37
2019-06-01T17:59:49.107Z,55.12
2019-06-01T18:02:34.551Z,53.96
2019-06-01T18:05:05.830Z,53.28
2019-06-01T18:07:36.432Z,53.91
2019-06-01T18:10:06.645Z,56.38
2019-06-01T18:12:36.884Z,55.26
2019-06-01T18:15:08.288Z,57.87
2019-06-01T18:17:38.798Z,57.35
2019-06-01T18:20:09.118Z,58.09
2019-06-01T18:22:39.394Z,58.76
2019-06-01T18:25:13.410Z,60.32
2019-06-01T18:27:44.711Z,60.11
2019-06-01T18:30:18.718Z,61.73
2019-06-01T18:32:49.177Z,63.83
2019-06-01T18:35:24.848Z,62.96
2019-06-01T18:38:07.664Z,63.21
2019-06-01T18:40:38.714Z,63.48
2019-06-01T18:43:14.693Z,66.26
2019-06-01T18:45:47.144Z,65.43
2019-06-01T18:48:19.556Z,66.08
2019-06-01T18:50:51.767Z,66.34
2019-06-01T18:53:31.976Z,66.68
2019-06-01T18:55:57.436Z,67.31
2019-06-01T18:58:27.715Z,68.82
2019-06-01T19:00:57.952Z,68.51
2019-06-01T19:03:30.416Z,69.54
2019-06-01T19:06:01.719Z,69.62
2019-06-01T19:08:34.711Z,70.25
2019-06-01T19:11:06.062Z,70.10
2019-06-01T19:13:36.579Z,69.98
2019-06-01T19:16:07.940Z,71.04
2019-06-01T19:18:42.735Z,71.29
2019-06-01T19:21:12.994Z,71.17
2019-06-01T19:23:45.068Z,71.52
2019-06-01T19:26:18.872Z,71.45
2019-06-01T19:28:52.285Z,71.49
2019-06-01T19:31:22.671Z,72.19
2019-06-01T19:33:54.907Z,73.10
2019-06-01T19:36:28.635Z,73.69
2019-06-01T19:39:09.089Z,73.55
2019-06-01T19:41:53.756Z,74.37
2019-06-01T19:44:29.998Z,74.50
2019-06-01T19:47:05.142Z,75.24
2019-06-01T19:49:37.624Z,76.00
2019-06-01T19:52:08.561Z,74.69
2019-06-01T19:54:45.871Z,75.79
2019-06-01T19:57:21.754Z,76.86
2019-06-01T19:59:53.861Z,76.80
2019-06-01T20:02:33.299Z,77.08
2019-06-01T20:04:56.156Z,76.32
2019-06-01T20:07:26.434Z,76.87
2019-06-01T20:09:56.842Z,77.38
2019-06-01T20:12:34.389Z,76.51
2019-06-01T20:15:11.329Z,76.83
2019-06-01T20:17:53.935Z,77.43
2019-06-01T20:20:29.778Z,77.33
2019-06-01T20:23:06.470Z,78.10
2019-06-01T20:25:41.983Z,77.29
2019-06-01T20:28:22.000Z,78.22
2019-06-01T20:31:15.750Z,78.04
2019-06-01T20:33:49.795Z,78.55
2019-06-01T20:36:23.130Z,78.29
2019-06-01T20:38:54.046Z,79.06
2019-06-01T20:41:24.796Z,78.68
2019-06-01T20:43:59.184Z,78.97
2019-06-01T20:48:28.156Z,78.70
2019-06-01T20:50:28.288Z,79.20
2019-06-01T20:53:06.781Z,79.15
2019-06-01T20:55:49.807Z,79.62
2019-06-01T21:12:12.006Z,80.60
2019-06-01T21:14:46.923Z,81.41
2019-06-01T21:17:01.868Z,81.95
2019-06-01T21:36:06.768Z,81.75
2019-06-01T21:38:49.675Z,82.88
2019-06-01T21:41:41.483Z,83.45
2019-06-01T21:44:38.265Z,83.28
2019-06-01T21:47:11.455Z,83.25
2019-06-01T21:49:49.069Z,83.64
2019-06-01T21:52:26.232Z,83.19
2019-06-01T21:55:06.141Z,82.70
2019-06-01T21:57:39.367Z,83.24
2019-06-01T22:00:14.051Z,83.18
2019-06-01T22:02:51.409Z,82.25
2019-06-01T22:05:23.001Z,82.82
2019-06-01T22:07:55.030Z,83.25
2019-06-01T22:10:29.802Z,83.43
2019-06-01T22:13:18.558Z,83.70
2019-06-01T22:15:50.799Z,84.38
2019-06-01T22:18:23.677Z,84.48
2019-06-01T22:21:06.720Z,83.48
2019-06-01T22:23:39.248Z,84.19
2019-06-01T22:26:13.455Z,85.41
2019-06-01T22:28:49.466Z,84.77
2019-06-01T22:31:24.536Z,85.83
2019-06-01T22:34:18.501Z,84.62
2019-06-01T22:36:47.391Z,85.15
2019-06-01T22:39:24.777Z,85.84
2019-06-01T22:41:55.018Z,84.49
2019-06-01T22:44:26.208Z,85.21
2019-06-01T22:46:59.176Z,84.86
2019-06-01T22:49:29.391Z,84.59
2019-06-01T22:51:59.590Z,86.12
2019-06-01T22:54:29.739Z,85.60
2019-06-01T22:56:59.873Z,84.98
2019-06-01T22:59:32.824Z,85.19
2019-06-01T23:02:03.176Z,85.98
2019-06-01T23:04:33.392Z,85.26
2019-06-01T23:07:03.591Z,85.17
2019-06-01T23:09:33.709Z,85.57
2019-06-01T23:12:03.923Z,84.85
2019-06-01T23:14:34.110Z,85.72
2019-06-01T23:17:05.634Z,85.44
2019-06-01T23:19:35.884Z,85.46
2019-06-01T23:22:06.139Z,85.38
2019-06-01T23:24:36.339Z,85.58
2019-06-01T23:27:06.549Z,85.26
2019-06-01T23:29:36.771Z,85.00
2019-06-01T23:32:07.239Z,85.52
2019-06-01T23:34:37.369Z,85.27
2019-06-01T23:37:07.624Z,84.57
2019-06-01T23:39:38.012Z,85.56
2019-06-01T23:42:08.175Z,85.58
2019-06-01T23:44:44.070Z,84.78
2019-06-01T23:47:14.384Z,84.57
2019-06-01T23:49:44.585Z,86.07
2019-06-01T23:52:14.790Z,85.18
2019-06-01T23:54:45.107Z,84.28
2019-06-01T23:57:16.552Z,85.72
2019-06-01T23:59:46.671Z,85.45
